Time;durP1;ratioP1;P1;durP2;ratioP2;P2;SDS_P1;SDS_P2;PMS_P1;PMS_P2;Temp;Humidity;BMP_temperature;BMP_pressure;BME280_temperature;BME280_humidity;BME280_pressure;Samples;Min_cycle;Max_cycle;Signal;HPM_P1;HPM_P2
2022/12/26 00:01:44;;;;;;;350.48;46.60;;;8.50;99.90;;;;;;5033680;28;20076;-67
2022/12/26 00:04:10;;;;;;;411.23;50.42;;;8.10;99.90;;;;;;5039480;28;20144;-67
2022/12/26 00:06:36;;;;;;;286.73;43.70;;;8.60;99.90;;;;;;5037506;28;20120;-67
2022/12/26 00:09:03;;;;;;;348.90;48.50;;;8.50;99.90;;;;;;5019013;28;20176;-66
2022/12/26 00:11:30;;;;;;;369.00;48.88;;;8.60;99.90;;;;;;5038184;28;20128;-66
2022/12/26 00:14:05;;;;;;;314.30;46.08;;;8.30;99.90;;;;;;5038770;28;20053;-66
2022/12/26 00:16:30;;;;;;;359.02;48.10;;;8.00;99.90;;;;;;5033738;28;20684;-66
2022/12/26 00:18:56;;;;;;;314.60;45.97;;;8.60;99.90;;;;;;5019826;28;20051;-67
2022/12/26 00:21:25;;;;;;;313.23;45.13;;;7.90;99.90;;;;;;5035770;28;20036;-66
2022/12/26 00:23:51;;;;;;;324.00;47.55;;;7.80;99.90;;;;;;5017049;28;20048;-67
2022/12/26 00:26:21;;;;;;;283.27;41.75;;;8.60;99.90;;;;;;5033739;28;20080;-67
2022/12/26 00:28:47;;;;;;;353.15;47.15;;;8.20;99.90;;;;;;5017444;28;20478;-68
2022/12/26 00:31:16;;;;;;;308.65;44.63;;;8.00;99.90;;;;;;5017362;28;20048;-68
2022/12/26 00:33:42;;;;;;;267.73;43.65;;;8.50;99.90;;;;;;5033672;28;20045;-69
2022/12/26 00:36:12;;;;;;;281.52;43.60;;;8.10;99.90;;;;;;5020190;28;20471;-70
2022/12/26 00:38:39;;;;;;;256.42;40.10;;;8.00;99.90;;;;;;5035881;28;20049;-66
2022/12/26 00:41:05;;;;;;;239.25;38.88;;;8.10;99.90;;;;;;5067251;28;20102;-66
2022/12/26 00:43:32;;;;;;;266.88;42.50;;;7.90;99.90;;;;;;5035924;28;20355;-67
2022/12/26 00:46:01;;;;;;;208.63;36.92;;;7.80;99.90;;;;;;5036030;28;20757;-65
2022/12/26 00:48:27;;;;;;;222.80;37.38;;;8.40;99.90;;;;;;5032439;28;20044;-66
2022/12/26 00:50:53;;;;;;;264.00;40.60;;;8.40;99.90;;;;;;5037301;28;20103;-67
2022/12/26 00:53:19;;;;;;;262.25;42.65;;;7.80;99.90;;;;;;5003886;28;20040;-66
2022/12/26 00:55:45;;;;;;;259.67;38.97;;;7.80;99.90;;;;;;5067163;28;20053;-66
2022/12/26 00:58:11;;;;;;;282.33;42.20;;;8.00;99.90;;;;;;5036866;28;20095;-67
2022/12/26 01:00:37;;;;;;;243.63;41.38;;;7.80;99.90;;;;;;5037806;28;20059;-67
2022/12/26 01:03:05;;;;;;;203.25;37.75;;;7.70;99.90;;;;;;5035597;28;20047;-67
2022/12/26 01:05:31;;;;;;;218.10;39.17;;;7.90;99.90;;;;;;5016080;28;20570;-66
2022/12/26 01:07:57;;;;;;;204.32;38.88;;;7.70;99.90;;;;;;5034893;28;20045;-67
2022/12/26 01:10:22;;;;;;;168.27;36.67;;;8.50;99.90;;;;;;5017811;28;20068;-67
2022/12/26 01:12:48;;;;;;;158.50;37.53;;;8.10;99.90;;;;;;5036927;28;20048;-67
2022/12/26 01:15:14;;;;;;;191.60;38.15;;;8.00;99.90;;;;;;5037114;28;21389;-67
2022/12/26 01:17:39;;;;;;;146.55;34.08;;;8.00;99.90;;;;;;5018437;28;20045;-66
2022/12/26 01:20:05;;;;;;;151.07;34.00;;;8.00;99.90;;;;;;5034446;28;20290;-67
2022/12/26 01:22:31;;;;;;;163.85;36.13;;;8.50;99.90;;;;;;5050470;28;20078;-65
2022/12/26 01:24:57;;;;;;;142.10;33.95;;;7.80;99.90;;;;;;5036469;28;20110;-67
2022/12/26 01:27:29;;;;;;;141.60;33.47;;;8.50;99.90;;;;;;5035868;28;20495;-69
2022/12/26 01:29:55;;;;;;;133.23;32.63;;;8.40;99.90;;;;;;5019200;28;20045;-67
2022/12/26 01:32:21;;;;;;;128.00;31.95;;;8.50;99.90;;;;;;5034838;28;20376;-67
2022/12/26 01:34:47;;;;;;;150.60;33.95;;;7.90;99.90;;;;;;5033752;28;20051;-66
2022/12/26 01:37:15;;;;;;;138.77;33.28;;;7.90;99.90;;;;;;5015874;28;20276;-66
2022/12/26 01:39:41;;;;;;;124.78;29.98;;;7.90;99.90;;;;;;5049200;28;20048;-67
2022/12/26 01:42:19;;;;;;;135.90;32.05;;;7.90;99.90;;;;;;5017265;28;20588;-67
2022/12/26 01:45:09;;;;;;;135.77;31.45;;;8.00;99.90;;;;;;5018768;28;20211;-67
2022/12/26 01:47:45;;;;;;;125.35;31.63;;;8.30;99.90;;;;;;5018097;28;20051;-66
2022/12/26 01:50:25;;;;;;;143.23;34.45;;;8.50;99.90;;;;;;5034905;28;20069;-67
2022/12/26 01:52:55;;;;;;;160.82;34.47;;;8.70;99.90;;;;;;5032744;28;20041;-67
2022/12/26 01:55:21;;;;;;;157.38;34.83;;;8.80;99.90;;;;;;5067500;28;20220;-69
2022/12/26 01:57:53;;;;;;;171.63;36.83;;;8.40;99.90;;;;;;5033575;28;20040;-68
2022/12/26 02:00:19;;;;;;;146.23;34.67;;;8.10;99.90;;;;;;5034800;28;20033;-69
2022/12/26 02:05:33;;;;;;;162.65;38.72;;;7.90;99.90;;;;;;5032681;28;20041;-69
2022/12/26 02:08:03;;;;;;;168.60;38.30;;;8.00;99.90;;;;;;5016411;28;20306;-69
2022/12/26 02:10:35;;;;;;;159.55;36.75;;;8.40;99.90;;;;;;5035049;28;20098;-70
2022/12/26 02:13:01;;;;;;;166.13;36.00;;;8.60;99.90;;;;;;5033580;28;20068;-68
2022/12/26 02:15:27;;;;;;;163.93;37.08;;;8.70;99.90;;;;;;5016536;28;20059;-69
2022/12/26 02:17:53;;;;;;;173.27;36.90;;;8.70;99.90;;;;;;5034636;28;20072;-69
2022/12/26 02:20:22;;;;;;;168.90;36.53;;;8.10;99.90;;;;;;5032675;28;20037;-69
2022/12/26 02:23:03;;;;;;;190.40;38.92;;;8.20;99.90;;;;;;5034637;28;20056;-70
2022/12/26 02:26:03;;;;;;;189.88;40.38;;;8.20;99.90;;;;;;5032160;28;20084;-69
2022/12/26 02:29:04;;;;;;;154.20;37.22;;;7.90;99.90;;;;;;5013168;28;20158;-68
2022/12/26 02:31:45;;;;;;;145.75;36.15;;;8.50;99.90;;;;;;5050637;28;20045;-69
2022/12/26 02:34:17;;;;;;;154.73;38.67;;;8.30;99.90;;;;;;5036243;28;20112;-69
2022/12/26 02:37:03;;;;;;;128.82;33.78;;;8.00;99.90;;;;;;5065329;28;20116;-69
2022/12/26 02:39:49;;;;;;;108.57;31.15;;;8.60;99.90;;;;;;4994800;28;20314;-69
2022/12/26 02:42:46;;;;;;;120.72;33.50;;;7.90;99.90;;;;;;5034036;28;20067;-70
2022/12/26 02:48:18;;;;;;;98.28;29.42;;;8.00;99.90;;;;;;5040094;28;20041;-70
2022/12/26 03:14:25;;;;;;;90.70;28.35;;;8.40;99.90;;;;;;5036364;28;20300;-69
2022/12/26 03:19:58;;;;;;;92.50;29.88;;;8.10;99.90;;;;;;5037155;28;20049;-69
2022/12/26 03:22:45;;;;;;;86.15;27.65;;;7.80;99.90;;;;;;5035929;28;20658;-69
2022/12/26 03:28:21;;;;;;;76.90;28.40;;;8.40;99.90;;;;;;5035397;28;20052;-69
2022/12/26 03:30:49;;;;;;;84.85;30.10;;;8.10;99.90;;;;;;5002684;28;20071;-69
2022/12/26 03:36:41;;;;;;;75.35;28.77;;;8.30;99.90;;;;;;5037413;28;20051;-69
2022/12/26 03:39:14;;;;;;;95.72;31.92;;;8.20;99.90;;;;;;5036050;28;20417;-68
2022/12/26 04:20:28;;;;;;;67.15;33.65;;;7.90;99.90;;;;;;4957377;28;20235;-69
2022/12/26 04:45:57;;;;;;;91.63;40.45;;;8.90;99.90;;;;;;5034511;28;20389;-69
2022/12/26 04:51:07;;;;;;;86.50;39.42;;;9.10;99.90;;;;;;5036034;28;20045;-70
2022/12/26 04:53:33;;;;;;;77.85;38.05;;;9.20;99.90;;;;;;5037540;28;20103;-70
2022/12/26 04:55:58;;;;;;;83.57;39.38;;;8.20;99.90;;;;;;5034414;28;20123;-69
2022/12/26 04:58:25;;;;;;;77.60;39.10;;;8.20;99.90;;;;;;5036771;28;20495;-69
2022/12/26 05:00:51;;;;;;;90.13;42.20;;;9.20;99.90;;;;;;5036110;28;20085;-70
2022/12/26 05:11:48;;;;;;;76.30;39.05;;;8.10;99.90;;;;;;5051150;28;20646;-69
2022/12/26 05:14:14;;;;;;;69.03;36.75;;;9.20;99.90;;;;;;5019680;28;20352;-66
2022/12/26 05:30:27;;;;;;;85.97;41.38;;;8.40;99.90;;;;;;5036287;28;20041;-68
2022/12/26 05:35:38;;;;;;;68.00;36.30;;;8.40;99.90;;;;;;5032796;28;20040;-67
2022/12/26 05:38:04;;;;;;;68.05;36.47;;;9.20;99.90;;;;;;5036381;28;20480;-69
2022/12/26 05:40:30;;;;;;;53.05;30.30;;;8.50;99.90;;;;;;5049212;28;20502;-69
2022/12/26 05:42:56;;;;;;;47.85;28.13;;;8.60;99.90;;;;;;5017013;28;20044;-67
2022/12/26 05:45:22;;;;;;;52.33;31.38;;;8.60;99.90;;;;;;5034324;28;20037;-68
2022/12/26 05:47:48;;;;;;;45.95;29.88;;;8.50;99.90;;;;;;5035517;28;20047;-69
2022/12/26 05:50:14;;;;;;;45.13;29.65;;;8.80;99.90;;;;;;5032660;28;20048;-67
2022/12/26 05:52:39;;;;;;;39.85;27.17;;;8.50;99.90;;;;;;5035422;28;20097;-69
2022/12/26 05:55:05;;;;;;;38.47;26.48;;;9.30;99.90;;;;;;5030409;28;20442;-68
2022/12/26 05:57:31;;;;;;;42.65;28.35;;;8.70;99.90;;;;;;5033345;28;20045;-68
2022/12/26 05:59:57;;;;;;;38.90;27.67;;;8.70;99.90;;;;;;5018396;28;21562;-69
2022/12/26 06:02:23;;;;;;;39.00;28.17;;;9.40;99.90;;;;;;5034931;28;20041;-68
2022/12/26 06:04:48;;;;;;;45.28;29.73;;;9.30;99.90;;;;;;5033108;28;20044;-68
2022/12/26 06:07:14;;;;;;;38.97;27.38;;;9.30;99.90;;;;;;5033548;28;20048;-68
2022/12/26 06:09:40;;;;;;;46.35;29.80;;;8.80;99.90;;;;;;5017313;28;20033;-68
2022/12/26 06:12:05;;;;;;;37.13;24.33;;;8.60;99.90;;;;;;5017648;28;20045;-69
2022/12/26 06:14:31;;;;;;;44.50;29.73;;;8.50;99.90;;;;;;5034252;28;20483;-68
2022/12/26 06:16:57;;;;;;;39.95;27.30;;;9.30;99.90;;;;;;5034683;28;20121;-70
2022/12/26 06:19:22;;;;;;;50.90;32.80;;;9.00;99.90;;;;;;5017485;28;20482;-69
2022/12/26 06:21:48;;;;;;;47.60;31.35;;;9.20;99.90;;;;;;4998005;28;20494;-69
2022/12/26 06:24:14;;;;;;;45.95;30.15;;;9.00;99.90;;;;;;5035033;28;20057;-69
2022/12/26 06:26:45;;;;;;;47.13;32.65;;;9.20;99.90;;;;;;5019152;28;20071;-68
2022/12/26 06:29:11;;;;;;;43.13;29.88;;;8.80;99.90;;;;;;5016375;28;20551;-69
2022/12/26 06:31:37;;;;;;;42.50;31.02;;;8.40;99.90;;;;;;5034758;28;20037;-68
2022/12/26 06:34:04;;;;;;;43.55;32.22;;;8.30;99.90;;;;;;5018002;28;20132;-70
2022/12/26 06:36:30;;;;;;;42.28;31.27;;;9.00;99.90;;;;;;5032396;28;20047;-69
2022/12/26 06:39:00;;;;;;;46.50;33.67;;;9.30;99.90;;;;;;5034239;28;20045;-69
2022/12/26 06:41:25;;;;;;;44.42;32.58;;;9.10;99.90;;;;;;5017522;28;20052;-68
2022/12/26 06:43:51;;;;;;;43.45;32.17;;;9.30;99.90;;;;;;5015722;28;20080;-68
2022/12/26 06:46:20;;;;;;;38.72;30.23;;;8.30;99.90;;;;;;5049324;28;20060;-68
2022/12/26 06:48:46;;;;;;;40.28;30.58;;;9.30;99.90;;;;;;5034469;28;20068;-68
2022/12/26 06:51:14;;;;;;;38.53;30.50;;;9.10;99.90;;;;;;5032306;28;20033;-68
2022/12/26 06:53:41;;;;;;;38.13;29.75;;;8.60;99.90;;;;;;5063605;28;20043;-67
2022/12/26 06:56:12;;;;;;;40.53;29.95;;;8.90;99.90;;;;;;5017511;28;20044;-67
2022/12/26 06:58:38;;;;;;;36.40;28.92;;;8.80;99.90;;;;;;5033968;28;20048;-68
2022/12/26 07:01:12;;;;;;;39.25;31.58;;;8.40;99.90;;;;;;5033212;28;20045;-67
2022/12/26 07:03:38;;;;;;;33.03;28.73;;;8.50;99.90;;;;;;5034804;28;20045;-67
2022/12/26 07:06:12;;;;;;;32.50;27.10;;;9.00;99.90;;;;;;5034155;28;20041;-68
2022/12/26 07:08:38;;;;;;;34.55;28.15;;;9.00;99.90;;;;;;5031237;28;20065;-67
2022/12/26 07:11:04;;;;;;;32.78;27.23;;;9.10;99.90;;;;;;5035437;28;20167;-67
2022/12/26 07:13:29;;;;;;;35.72;26.17;;;8.50;99.90;;;;;;5034379;28;20068;-67
2022/12/26 07:15:58;;;;;;;32.10;25.75;;;8.90;99.90;;;;;;5034977;28;20363;-67
2022/12/26 07:18:24;;;;;;;34.50;25.80;;;8.80;99.90;;;;;;5034762;28;20047;-67
2022/12/26 07:20:49;;;;;;;28.63;23.45;;;8.70;99.90;;;;;;5036032;28;20040;-67
2022/12/26 07:23:15;;;;;;;28.58;22.65;;;8.50;99.90;;;;;;5036587;28;20043;-67
2022/12/26 07:25:41;;;;;;;25.42;22.02;;;8.50;99.90;;;;;;5035789;28;20426;-67
2022/12/26 07:28:06;;;;;;;27.90;22.50;;;8.60;99.90;;;;;;5037150;28;20486;-67
2022/12/26 07:30:32;;;;;;;26.10;21.42;;;8.90;99.90;;;;;;5038286;28;20052;-67
2022/12/26 07:32:58;;;;;;;28.50;21.88;;;8.50;99.90;;;;;;5040351;28;20076;-66
2022/12/26 07:35:23;;;;;;;26.92;20.52;;;9.10;99.90;;;;;;5040336;28;20080;-67
2022/12/26 07:37:49;;;;;;;25.58;21.33;;;8.70;99.90;;;;;;5021999;28;20106;-66
2022/12/26 07:40:15;;;;;;;26.02;21.15;;;8.60;99.90;;;;;;5039571;28;20041;-67
2022/12/26 07:42:40;;;;;;;25.08;20.25;;;9.20;99.90;;;;;;5022771;28;21015;-68
2022/12/26 07:45:07;;;;;;;28.20;21.25;;;8.70;99.90;;;;;;5071041;28;20845;-66
2022/12/26 07:47:32;;;;;;;31.08;21.27;;;9.10;99.90;;;;;;5039203;28;20116;-67
2022/12/26 07:49:58;;;;;;;27.45;20.70;;;9.30;99.90;;;;;;5041716;28;20191;-67
2022/12/26 07:52:24;;;;;;;23.45;19.10;;;9.20;99.90;;;;;;5039318;28;20041;-67
2022/12/26 07:54:49;;;;;;;26.70;19.90;;;8.80;99.90;;;;;;5038640;28;20040;-67
2022/12/26 07:57:15;;;;;;;25.17;18.80;;;9.30;99.90;;;;;;5021121;28;20486;-67
2022/12/26 07:59:41;;;;;;;23.15;17.05;;;9.00;99.90;;;;;;5039697;28;20049;-67
2022/12/26 08:02:09;;;;;;;21.48;16.38;;;8.80;99.90;;;;;;5038695;28;20102;-67
2022/12/26 08:04:35;;;;;;;23.23;18.52;;;9.20;99.90;;;;;;5039576;28;20217;-66
2022/12/26 08:07:01;;;;;;;24.58;16.98;;;9.20;99.90;;;;;;5039929;28;20123;-68
2022/12/26 08:09:27;;;;;;;24.45;16.88;;;9.20;99.90;;;;;;5036793;28;20095;-67
2022/12/26 08:11:52;;;;;;;20.58;16.40;;;9.20;99.90;;;;;;5038460;28;20098;-68
2022/12/26 08:14:18;;;;;;;22.00;15.68;;;8.70;99.90;;;;;;5038068;28;21244;-66
2022/12/26 08:16:44;;;;;;;22.58;17.35;;;9.10;99.90;;;;;;5037642;28;20049;-67
2022/12/26 08:19:10;;;;;;;22.20;15.35;;;8.70;99.90;;;;;;5039207;28;20131;-67
2022/12/26 08:21:36;;;;;;;20.55;13.82;;;9.30;99.90;;;;;;5038957;28;20049;-66
2022/12/26 08:24:02;;;;;;;21.73;14.35;;;9.20;99.90;;;;;;5038447;28;20147;-67
2022/12/26 08:26:28;;;;;;;21.83;14.32;;;9.00;99.90;;;;;;5039137;28;20048;-67
2022/12/26 08:28:55;;;;;;;20.90;13.73;;;8.80;99.90;;;;;;5021114;28;20041;-69
2022/12/26 08:31:21;;;;;;;18.25;12.90;;;9.30;99.90;;;;;;5040270;28;20132;-68
2022/12/26 08:33:48;;;;;;;19.27;12.25;;;8.80;99.90;;;;;;5020776;28;20098;-67
2022/12/26 08:36:18;;;;;;;17.08;12.30;;;9.40;99.90;;;;;;5040634;28;20036;-68
2022/12/26 08:38:43;;;;;;;15.80;11.73;;;9.00;99.90;;;;;;5022033;28;20083;-69
2022/12/26 08:41:09;;;;;;;15.95;10.98;;;9.30;99.90;;;;;;5020752;28;20120;-68
2022/12/26 08:43:35;;;;;;;16.88;12.30;;;9.10;99.90;;;;;;5036492;28;20039;-68
2022/12/26 08:46:02;;;;;;;17.20;11.18;;;9.30;99.90;;;;;;5038229;28;20459;-69
2022/12/26 08:48:28;;;;;;;16.23;8.82;;;9.00;99.90;;;;;;5036670;28;20123;-68
2022/12/26 08:51:00;;;;;;;16.98;9.82;;;9.10;99.90;;;;;;5036948;28;20052;-69
2022/12/26 08:53:28;;;;;;;13.35;9.80;;;9.00;99.90;;;;;;5036797;28;20498;-68
2022/12/26 08:55:54;;;;;;;15.30;9.25;;;9.40;99.90;;;;;;5036728;28;20045;-67
2022/12/26 08:58:20;;;;;;;17.55;10.55;;;9.00;99.90;;;;;;5038035;28;20236;-67
2022/12/26 09:00:46;;;;;;;14.93;10.30;;;9.40;99.90;;;;;;5033823;28;20556;-67
2022/12/26 09:03:13;;;;;;;18.45;10.00;;;9.40;99.90;;;;;;5035587;28;20051;-67
2022/12/26 09:05:39;;;;;;;16.80;10.43;;;9.00;99.90;;;;;;5020120;28;20041;-66
2022/12/26 09:08:04;;;;;;;14.60;9.93;;;9.00;99.90;;;;;;5036794;28;20175;-69
2022/12/26 09:10:30;;;;;;;17.15;10.23;;;9.50;99.90;;;;;;5002790;28;20082;-67
2022/12/26 09:12:56;;;;;;;15.23;10.38;;;9.40;99.90;;;;;;5036453;28;20049;-66
2022/12/26 09:15:21;;;;;;;16.67;10.63;;;8.80;99.90;;;;;;5034852;28;20047;-67
2022/12/26 09:17:47;;;;;;;17.75;11.70;;;9.30;99.90;;;;;;5002983;28;20099;-67
2022/12/26 09:20:13;;;;;;;14.02;9.57;;;8.80;99.90;;;;;;5020423;28;20044;-67
2022/12/26 09:22:50;;;;;;;21.25;11.90;;;8.90;99.90;;;;;;5038448;28;20432;-69
2022/12/26 09:25:23;;;;;;;18.60;10.88;;;9.30;99.90;;;;;;5007370;28;20053;-70
2022/12/26 09:27:49;;;;;;;16.23;11.10;;;8.70;99.90;;;;;;5020285;28;20548;-70
2022/12/26 09:30:15;;;;;;;18.08;12.57;;;8.60;99.90;;;;;;5037678;28;20052;-66
2022/12/26 09:32:41;;;;;;;20.00;12.63;;;9.30;99.90;;;;;;5001107;28;20041;-66
2022/12/26 09:35:07;;;;;;;14.57;10.20;;;9.00;99.90;;;;;;5035694;28;20102;-67
2022/12/26 09:37:33;;;;;;;20.48;13.15;;;8.60;99.90;;;;;;5034937;28;20079;-66
2022/12/26 09:39:59;;;;;;;17.83;12.95;;;8.50;99.90;;;;;;5020476;28;20450;-66
2022/12/26 09:42:38;;;;;;;23.05;14.93;;;9.30;99.90;;;;;;5034675;28;20709;-69
2022/12/26 09:45:10;;;;;;;18.90;13.23;;;9.30;99.90;;;;;;5035107;28;20041;-68
2022/12/26 09:48:11;;;;;;;20.42;13.23;;;8.70;99.90;;;;;;5032837;28;20111;-69
2022/12/26 09:50:39;;;;;;;17.73;13.65;;;9.00;99.90;;;;;;5012134;28;20538;-68
2022/12/26 09:53:11;;;;;;;23.92;14.95;;;8.40;99.90;;;;;;5035600;28;20049;-69
2022/12/26 09:56:01;;;;;;;21.20;14.13;;;8.20;99.90;;;;;;5020972;28;20055;-68
2022/12/26 09:58:33;;;;;;;22.85;14.63;;;8.30;99.90;;;;;;5018043;28;20119;-68
2022/12/26 10:01:23;;;;;;;21.65;13.63;;;8.80;99.90;;;;;;5036877;28;20049;-68
2022/12/26 10:03:57;;;;;;;14.88;10.43;;;9.10;99.90;;;;;;5017242;28;20456;-68
2022/12/26 10:06:48;;;;;;;10.23;7.93;;;9.30;99.90;;;;;;5049455;28;20045;-67
2022/12/26 10:09:47;;;;;;;15.18;8.25;;;8.50;99.90;;;;;;5035472;28;20052;-68
2022/12/26 10:12:16;;;;;;;7.38;2.47;;;8.80;99.90;;;;;;5036640;28;20464;-68
2022/12/26 10:15:09;;;;;;;9.68;2.70;;;9.20;99.90;;;;;;5034410;28;20056;-68
2022/12/26 10:18:13;;;;;;;7.88;1.10;;;8.60;99.90;;;;;;5036122;28;20040;-67
2022/12/26 10:21:09;;;;;;;9.73;1.00;;;8.50;99.90;;;;;;5032000;28;21361;-67
2022/12/26 10:23:45;;;;;;;11.70;1.65;;;8.50;99.90;;;;;;5033807;28;20304;-68
2022/12/26 10:26:22;;;;;;;11.18;1.17;;;8.60;99.90;;;;;;5017923;28;20281;-69
2022/12/26 10:29:04;;;;;;;9.38;1.10;;;8.10;99.90;;;;;;5016341;28;20048;-67
2022/12/26 10:31:49;;;;;;;9.82;1.08;;;8.10;99.90;;;;;;5018132;28;20045;-65
2022/12/26 10:34:17;;;;;;;17.70;1.67;;;8.20;99.90;;;;;;5033980;28;20049;-67
2022/12/26 10:36:50;;;;;;;10.52;1.50;;;8.40;99.90;;;;;;5026846;28;20749;-66
2022/12/26 10:39:25;;;;;;;14.95;1.17;;;8.50;99.90;;;;;;5037024;28;20487;-66
2022/12/26 10:41:54;;;;;;;14.80;1.55;;;8.30;99.90;;;;;;5035491;28;20037;-66
2022/12/26 10:44:21;;;;;;;13.98;1.40;;;8.50;99.90;;;;;;5035601;28;20052;-66
2022/12/26 10:46:55;;;;;;;13.98;1.45;;;8.00;99.90;;;;;;5034748;28;20378;-67
2022/12/26 10:49:24;;;;;;;14.98;1.73;;;8.20;99.90;;;;;;5066358;28;20344;-68
2022/12/26 10:51:51;;;;;;;16.90;1.40;;;8.30;99.90;;;;;;5064120;28;20045;-67
2022/12/26 10:54:18;;;;;;;14.70;1.50;;;7.90;99.90;;;;;;5034469;28;20080;-66
2022/12/26 10:56:48;;;;;;;18.77;1.85;;;7.80;99.90;;;;;;5035210;28;20052;-67
2022/12/26 10:59:20;;;;;;;12.80;1.40;;;7.20;99.90;;;;;;5049510;28;20041;-67
2022/12/26 11:01:48;;;;;;;14.10;1.35;;;7.40;99.90;;;;;;5034167;28;20091;-68
2022/12/26 11:04:21;;;;;;;21.55;1.77;;;7.50;99.90;;;;;;5016420;28;20041;-67
2022/12/26 11:06:51;;;;;;;12.85;1.05;;;7.20;99.90;;;;;;5034808;28;20332;-67
2022/12/26 11:09:41;;;;;;;12.05;0.73;;;7.90;99.90;;;;;;5067656;28;20051;-67
2022/12/26 11:12:20;;;;;;;9.85;1.17;;;7.30;99.90;;;;;;5037102;28;20045;-67
2022/12/26 11:14:48;;;;;;;13.00;0.95;;;7.30;99.90;;;;;;5037503;28;20773;-67
2022/12/26 11:17:33;;;;;;;19.23;1.75;;;7.30;99.90;;;;;;5037026;28;20068;-66
2022/12/26 11:20:10;;;;;;;14.57;1.60;;;7.20;99.90;;;;;;5037527;28;20549;-66
2022/12/26 11:22:36;;;;;;;11.90;0.95;;;7.50;99.90;;;;;;5034103;28;20438;-66
2022/12/26 11:25:19;;;;;;;8.05;0.50;;;7.30;99.90;;;;;;5036642;28;20053;-65
2022/12/26 11:27:54;;;;;;;16.17;1.20;;;7.40;99.90;;;;;;5069263;28;20182;-66
2022/12/26 11:30:31;;;;;;;10.70;0.85;;;6.80;99.90;;;;;;5035904;28;20490;-66
2022/12/26 11:33:22;;;;;;;11.38;1.13;;;6.90;99.90;;;;;;5038393;28;20373;-66
2022/12/26 11:36:02;;;;;;;14.15;1.30;;;7.50;99.90;;;;;;5038659;28;20106;-68
2022/12/26 11:38:38;;;;;;;10.10;0.82;;;7.80;99.90;;;;;;5064604;28;20556;-66
2022/12/26 11:41:34;;;;;;;11.38;0.75;;;8.00;99.90;;;;;;5038408;28;20053;-67
2022/12/26 11:44:10;;;;;;;9.77;0.85;;;8.00;99.90;;;;;;5038131;28;20053;-68
2022/12/26 11:46:38;;;;;;;8.15;0.40;;;8.00;99.90;;;;;;5036762;28;20094;-67
2022/12/26 11:49:06;;;;;;;13.07;0.82;;;8.30;91.10;;;;;;5037281;28;20036;-68
2022/12/26 11:51:45;;;;;;;8.35;1.10;;;8.80;99.90;;;;;;5037121;28;20101;-68
2022/12/26 11:54:22;;;;;;;7.63;0.60;;;8.80;1.00;;;;;;5016228;28;20032;-66
2022/12/26 11:56:58;;;;;;;8.30;0.50;;;8.80;99.90;;;;;;5038146;28;20507;-68
2022/12/26 11:59:23;;;;;;;8.70;0.52;;;8.40;1.00;;;;;;5036324;28;20051;-67
2022/12/26 12:02:22;;;;;;;13.23;0.85;;;8.00;1.00;;;;;;5036877;28;20495;-68
2022/12/26 12:04:49;;;;;;;8.90;1.00;;;7.50;1.00;;;;;;5037475;28;20036;-67
2022/12/26 12:07:18;;;;;;;10.13;0.90;;;7.50;1.00;;;;;;5037077;28;20044;-69
2022/12/26 12:09:47;;;;;;;11.23;1.05;;;7.50;27.30;;;;;;5033042;28;20596;-67
2022/12/26 12:12:40;;;;;;;10.13;0.80;;;7.60;91.20;;;;;;5038271;28;20560;-67
2022/12/26 12:15:11;;;;;;;8.68;0.85;;;7.40;3.90;;;;;;5038263;28;20044;-67
2022/12/26 12:18:05;;;;;;;13.43;0.85;;;7.20;68.60;;;;;;5017905;28;20131;-66
2022/12/26 12:20:55;;;;;;;15.93;1.65;;;7.30;99.90;;;;;;5018511;28;20136;-66
2022/12/26 12:23:32;;;;;;;12.73;1.10;;;7.10;29.30;;;;;;5035853;28;20057;-67
2022/12/26 12:26:29;;;;;;;10.05;0.70;;;7.20;72.70;;;;;;5033496;28;20326;-66
2022/12/26 12:29:07;;;;;;;10.73;1.05;;;7.00;1.00;;;;;;5037552;28;20644;-66
2022/12/26 12:31:54;;;;;;;14.35;1.52;;;7.30;1.00;;;;;;5034531;28;20045;-67
2022/12/26 12:34:55;;;;;;;8.50;0.82;;;7.20;1.00;;;;;;5036482;28;20044;-67
2022/12/26 12:37:45;;;;;;;15.77;1.50;;;7.30;99.90;;;;;;5051682;28;20040;-66
2022/12/26 12:40:20;;;;;;;11.93;1.08;;;7.30;99.90;;;;;;5035408;28;20503;-66
2022/12/26 12:43:02;;;;;;;16.50;1.55;;;7.30;99.90;;;;;;5035320;28;20207;-66
2022/12/26 12:45:55;;;;;;;13.52;1.27;;;7.40;99.90;;;;;;5036171;28;20488;-67
2022/12/26 12:49:02;;;;;;;13.65;1.08;;;7.40;99.90;;;;;;5066437;28;20649;-66
2022/12/26 12:51:49;;;;;;;12.20;1.10;;;7.40;99.90;;;;;;5035145;28;20323;-67
2022/12/26 12:54:17;;;;;;;14.40;1.30;;;7.30;99.90;;;;;;5036406;28;20289;-69
2022/12/26 12:57:14;;;;;;;11.18;0.98;;;7.30;99.90;;;;;;5034537;28;20149;-66
2022/12/26 13:00:12;;;;;;;17.63;1.33;;;7.30;99.50;;;;;;5021223;28;20048;-67
2022/12/26 13:02:44;;;;;;;14.77;1.10;;;7.20;99.90;;;;;;5037764;28;20049;-67
2022/12/26 13:05:16;;;;;;;20.87;1.67;;;7.20;99.90;;;;;;5036948;28;20080;-66
2022/12/26 13:07:47;;;;;;;15.45;1.35;;;7.20;99.90;;;;;;5038317;28;20502;-66
2022/12/26 13:10:23;;;;;;;17.20;1.70;;;7.10;99.90;;;;;;5038021;28;20041;-66
2022/12/26 13:12:50;;;;;;;13.73;1.95;;;7.10;99.90;;;;;;5035950;28;20052;-67
2022/12/26 13:15:25;;;;;;;21.73;2.63;;;7.20;99.90;;;;;;5036683;28;20045;-66
2022/12/26 13:18:13;;;;;;;21.02;1.63;;;7.20;99.90;;;;;;5037555;28;20087;-66
2022/12/26 13:20:59;;;;;;;14.48;2.00;;;7.50;99.90;;;;;;5038738;28;20503;-66
2022/12/26 13:26:35;;;;;;;16.90;1.67;;;7.50;99.90;;;;;;5040611;28;20056;-65
2022/12/26 13:29:18;;;;;;;14.55;2.00;;;7.90;99.90;;;;;;5036695;28;20052;-66
2022/12/26 13:31:44;;;;;;;11.70;1.10;;;8.00;99.90;;;;;;5039087;28;20898;-66
2022/12/26 13:34:18;;;;;;;19.67;1.90;;;7.80;99.90;;;;;;5036317;28;20295;-66
2022/12/26 13:36:47;;;;;;;12.10;1.77;;;7.50;89.40;;;;;;5037738;28;20131;-66
2022/12/26 13:39:17;;;;;;;16.75;1.60;;;7.40;99.90;;;;;;5038315;28;20044;-68
2022/12/26 13:44:54;;;;;;;14.70;1.05;;;7.30;71.50;;;;;;5008826;28;20044;-67
2022/12/26 13:47:36;;;;;;;15.88;2.05;;;7.20;99.90;;;;;;5020306;28;20055;-67
2022/12/26 13:50:40;;;;;;;14.10;1.48;;;7.10;99.90;;;;;;5035980;28;20045;-67
2022/12/26 13:53:24;;;;;;;18.05;1.75;;;7.10;99.90;;;;;;5036967;28;20529;-66
2022/12/26 13:56:14;;;;;;;13.40;1.42;;;7.00;99.90;;;;;;5036941;28;20041;-67
2022/12/26 13:59:17;;;;;;;16.08;1.80;;;6.90;99.90;;;;;;5035469;28;20037;-66
2022/12/26 14:02:21;;;;;;;17.30;2.33;;;6.90;99.90;;;;;;5035469;28;20095;-66
2022/12/26 14:05:20;;;;;;;14.05;1.50;;;6.80;99.90;;;;;;5035978;28;20036;-67
2022/12/26 14:07:59;;;;;;;14.68;1.05;;;6.90;99.90;;;;;;5069477;28;20414;-67
2022/12/26 14:10:47;;;;;;;19.55;1.55;;;7.30;99.90;;;;;;5020569;28;20118;-67
2022/12/26 14:13:30;;;;;;;15.25;1.42;;;7.50;99.90;;;;;;5036528;28;20033;-66
2022/12/26 14:16:00;;;;;;;13.15;1.00;;;7.50;99.90;;;;;;5037176;28;20059;-67
2022/12/26 14:18:35;;;;;;;15.48;1.40;;;7.20;99.90;;;;;;5034881;28;20051;-67
2022/12/26 14:21:22;;;;;;;17.65;1.73;;;6.70;99.90;;;;;;5033000;28;20094;-66
2022/12/26 14:24:01;;;;;;;15.00;1.63;;;6.40;99.90;;;;;;5048565;28;20041;-66
2022/12/26 14:26:35;;;;;;;14.52;1.40;;;6.20;99.90;;;;;;5036468;28;20064;-67
2022/12/26 14:29:54;;;;;;;14.98;1.20;;;6.10;99.90;;;;;;5034636;28;20048;-66
2022/12/26 14:32:39;;;;;;;19.13;1.75;;;6.10;99.90;;;;;;5028061;28;20733;-66
2022/12/26 14:35:35;;;;;;;19.80;2.63;;;5.80;99.90;;;;;;4997012;28;20056;-66
2022/12/26 14:38:21;;;;;;;13.88;1.23;;;6.00;99.90;;;;;;5055719;28;20131;-66
2022/12/26 14:41:00;;;;;;;16.15;1.63;;;5.80;99.90;;;;;;5037912;28;20044;-67
2022/12/26 14:43:36;;;;;;;11.88;1.33;;;5.80;99.90;;;;;;5068118;28;20151;-65
2022/12/26 14:46:42;;;;;;;16.80;1.40;;;5.70;99.90;;;;;;5067346;28;20037;-66
2022/12/26 14:49:34;;;;;;;17.45;1.20;;;5.70;99.90;;;;;;5059351;28;20048;-67
2022/12/26 14:52:32;;;;;;;16.35;1.38;;;5.70;99.90;;;;;;5031481;28;20055;-66
2022/12/26 14:54:58;;;;;;;19.38;1.85;;;5.50;99.90;;;;;;5018707;28;20061;-66
2022/12/26 14:57:43;;;;;;;13.20;1.27;;;5.50;99.90;;;;;;5035122;28;20044;-66
2022/12/26 15:00:29;;;;;;;15.23;1.23;;;5.50;99.90;;;;;;5029763;28;20052;-67
2022/12/26 15:02:57;;;;;;;15.95;1.65;;;5.40;99.90;;;;;;5034343;28;20921;-66
2022/12/26 15:05:35;;;;;;;21.63;2.25;;;5.40;99.90;;;;;;5031725;28;20044;-66
2022/12/26 15:08:22;;;;;;;20.27;1.67;;;5.20;99.90;;;;;;5034902;28;20796;-66
2022/12/26 15:11:18;;;;;;;17.67;1.85;;;5.30;99.90;;;;;;5034289;28;20037;-66
2022/12/26 15:14:02;;;;;;;20.33;2.13;;;5.20;99.90;;;;;;5065753;28;20044;-65
2022/12/26 15:17:06;;;;;;;16.52;1.70;;;5.00;99.90;;;;;;5033709;28;20044;-66
2022/12/26 15:20:10;;;;;;;13.75;1.60;;;5.10;99.90;;;;;;5032618;28;20052;-66
2022/12/26 15:23:12;;;;;;;17.70;1.77;;;4.90;99.90;;;;;;5036465;28;20152;-66
2022/12/26 15:26:07;;;;;;;20.08;1.90;;;5.00;99.90;;;;;;5034140;28;20045;-66
2022/12/26 15:29:00;;;;;;;18.17;1.50;;;5.00;99.90;;;;;;5025203;28;20041;-66